sensor_id;sensor_type;location;lat;lon;timestamp;pressure;altitude;pressure_sealevel;temperature;humidity
70053;BME280;57398;52.032;4.376;2023-01-01T00:02:04;100842.56;;;12.96;nan
70053;BME280;57398;52.032;4.376;2023-01-01T00:04:53;100836.44;;;12.91;nan
70053;BME280;57398;52.032;4.376;2023-01-01T00:07:42;100849.47;;;12.91;nan
70053;BME280;57398;52.032;4.376;2023-01-01T00:10:30;100842.00;;;12.94;nan
70053;BME280;57398;52.032;4.376;2023-01-01T00:13:18;100830.22;;;12.92;nan
70053;BME280;57398;52.032;4.376;2023-01-01T00:16:08;100843.16;;;12.87;nan
70053;BME280;57398;52.032;4.376;2023-01-01T00:18:56;100843.63;;;12.84;nan
70053;BME280;57398;52.032;4.376;2023-01-01T00:21:44;100848.34;;;12.87;nan
70053;BME280;57398;52.032;4.376;2023-01-01T00:24:34;100839.06;;;12.91;nan
70053;BME280;57398;52.032;4.376;2023-01-01T00:27:22;100831.16;;;12.86;nan
70053;BME280;57398;52.032;4.376;2023-01-01T00:30:11;100831.72;;;12.88;nan
70053;BME280;57398;52.032;4.376;2023-01-01T00:32:59;100828.44;;;12.81;nan
70053;BME280;57398;52.032;4.376;2023-01-01T00:35:47;100833.28;;;12.89;nan
70053;BME280;57398;52.032;4.376;2023-01-01T00:38:35;100842.91;;;12.88;nan
70053;BME280;57398;52.032;4.376;2023-01-01T00:41:25;100848.56;;;12.97;nan
70053;BME280;57398;52.032;4.376;2023-01-01T00:44:13;100836.09;;;12.99;nan
70053;BME280;57398;52.032;4.376;2023-01-01T00:47:01;100841.75;;;12.96;nan
70053;BME280;57398;52.032;4.376;2023-01-01T00:49:49;100809.38;;;12.92;nan
70053;BME280;57398;52.032;4.376;2023-01-01T00:52:37;100810.38;;;12.91;nan
70053;BME280;57398;52.032;4.376;2023-01-01T00:55:25;100851.88;;;12.92;nan
70053;BME280;57398;52.032;4.376;2023-01-01T00:58:17;100848.22;;;12.93;nan
70053;BME280;57398;52.032;4.376;2023-01-01T01:01:06;100837.09;;;12.98;nan
70053;BME280;57398;52.032;4.376;2023-01-01T01:03:54;100845.16;;;12.96;nan
70053;BME280;57398;52.032;4.376;2023-01-01T01:06:42;100847.47;;;13.10;nan
70053;BME280;57398;52.032;4.376;2023-01-01T01:09:31;100851.16;;;12.97;nan
70053;BME280;57398;52.032;4.376;2023-01-01T01:12:19;100848.78;;;12.95;nan
70053;BME280;57398;52.032;4.376;2023-01-01T01:15:09;100855.34;;;12.98;nan
70053;BME280;57398;52.032;4.376;2023-01-01T01:17:58;100842.56;;;12.96;nan
70053;BME280;57398;52.032;4.376;2023-01-01T01:20:49;100847.44;;;12.93;nan
70053;BME280;57398;52.032;4.376;2023-01-01T01:23:37;100838.56;;;12.94;nan
70053;BME280;57398;52.032;4.376;2023-01-01T01:26:27;100833.69;;;12.97;nan
70053;BME280;57398;52.032;4.376;2023-01-01T01:29:15;100841.19;;;12.94;nan
70053;BME280;57398;52.032;4.376;2023-01-01T01:32:05;100853.78;;;12.97;nan
70053;BME280;57398;52.032;4.376;2023-01-01T01:34:53;100846.97;;;12.96;nan
70053;BME280;57398;52.032;4.376;2023-01-01T01:37:41;100847.53;;;12.98;nan
70053;BME280;57398;52.032;4.376;2023-01-01T01:40:29;100869.28;;;13.04;nan
70053;BME280;57398;52.032;4.376;2023-01-01T01:43:21;100866.56;;;12.98;nan
70053;BME280;57398;52.032;4.376;2023-01-01T01:46:12;100875.28;;;13.04;nan
70053;BME280;57398;52.032;4.376;2023-01-01T01:49:04;100870.16;;;13.09;nan
70053;BME280;57398;52.032;4.376;2023-01-01T01:51:59;100885.09;;;13.14;nan
70053;BME280;57398;52.032;4.376;2023-01-01T01:54:49;100890.78;;;13.11;nan
70053;BME280;57398;52.032;4.376;2023-01-01T01:57:38;100881.69;;;13.13;nan
70053;BME280;57398;52.032;4.376;2023-01-01T02:00:27;100884.88;;;13.15;nan
70053;BME280;57398;52.032;4.376;2023-01-01T02:03:18;100883.53;;;13.13;nan
70053;BME280;57398;52.032;4.376;2023-01-01T02:06:09;100894.41;;;13.10;nan
70053;BME280;57398;52.032;4.376;2023-01-01T02:08:59;100906.28;;;13.17;nan
70053;BME280;57398;52.032;4.376;2023-01-01T02:11:48;100894.25;;;13.16;nan
70053;BME280;57398;52.032;4.376;2023-01-01T02:14:36;100886.34;;;13.11;nan
70053;BME280;57398;52.032;4.376;2023-01-01T02:17:30;100893.63;;;13.09;nan
70053;BME280;57398;52.032;4.376;2023-01-01T02:20:33;100908.66;;;13.19;nan
70053;BME280;57398;52.032;4.376;2023-01-01T02:23:43;100906.19;;;13.12;nan
70053;BME280;57398;52.032;4.376;2023-01-01T02:26:49;100913.28;;;13.00;nan
70053;BME280;57398;52.032;4.376;2023-01-01T02:29:41;100916.09;;;12.98;nan
70053;BME280;57398;52.032;4.376;2023-01-01T02:32:36;100914.22;;;12.82;nan
70053;BME280;57398;52.032;4.376;2023-01-01T02:35:30;100901.75;;;12.84;nan
70053;BME280;57398;52.032;4.376;2023-01-01T02:38:28;100913.09;;;12.90;nan
70053;BME280;57398;52.032;4.376;2023-01-01T02:41:20;100904.69;;;12.88;nan
70053;BME280;57398;52.032;4.376;2023-01-01T02:44:10;100897.94;;;12.75;nan
70053;BME280;57398;52.032;4.376;2023-01-01T02:47:13;100910.59;;;12.83;nan
70053;BME280;57398;52.032;4.376;2023-01-01T02:50:07;100906.75;;;12.86;nan
70053;BME280;57398;52.032;4.376;2023-01-01T02:53:13;100907.88;;;12.78;nan
70053;BME280;57398;52.032;4.376;2023-01-01T02:56:10;100919.22;;;12.84;nan
70053;BME280;57398;52.032;4.376;2023-01-01T02:59:16;100924.75;;;12.87;nan
70053;BME280;57398;52.032;4.376;2023-01-01T03:02:34;100930.41;;;12.96;nan
70053;BME280;57398;52.032;4.376;2023-01-01T03:05:29;100956.97;;;12.81;nan
70053;BME280;57398;52.032;4.376;2023-01-01T03:08:24;100975.94;;;12.53;nan
70053;BME280;57398;52.032;4.376;2023-01-01T03:11:17;100989.06;;;12.46;nan
70053;BME280;57398;52.032;4.376;2023-01-01T03:14:11;100982.38;;;12.39;nan
70053;BME280;57398;52.032;4.376;2023-01-01T03:17:06;101004.69;;;12.34;nan
70053;BME280;57398;52.032;4.376;2023-01-01T03:20:00;101011.13;;;12.44;nan
70053;BME280;57398;52.032;4.376;2023-01-01T03:22:50;101023.47;;;12.48;nan
70053;BME280;57398;52.032;4.376;2023-01-01T03:25:43;101015.03;;;12.53;nan
70053;BME280;57398;52.032;4.376;2023-01-01T03:28:35;101013.19;;;12.53;nan
70053;BME280;57398;52.032;4.376;2023-01-01T03:31:26;101016.25;;;12.50;nan
70053;BME280;57398;52.032;4.376;2023-01-01T03:34:18;101020.66;;;12.50;nan
70053;BME280;57398;52.032;4.376;2023-01-01T03:37:13;101027.59;;;12.44;nan
70053;BME280;57398;52.032;4.376;2023-01-01T03:40:04;101030.28;;;12.38;nan
70053;BME280;57398;52.032;4.376;2023-01-01T03:42:56;101044.88;;;12.27;nan
70053;BME280;57398;52.032;4.376;2023-01-01T03:45:47;101046.00;;;12.19;nan
70053;BME280;57398;52.032;4.376;2023-01-01T03:48:37;101057.88;;;12.15;nan
70053;BME280;57398;52.032;4.376;2023-01-01T03:52:04;101051.41;;;12.06;nan
70053;BME280;57398;52.032;4.376;2023-01-01T03:55:01;101069.84;;;12.04;nan
70053;BME280;57398;52.032;4.376;2023-01-01T03:57:56;101074.13;;;11.99;nan
70053;BME280;57398;52.032;4.376;2023-01-01T04:00:50;101075.22;;;11.91;nan
70053;BME280;57398;52.032;4.376;2023-01-01T04:03:41;101071.06;;;11.90;nan
70053;BME280;57398;52.032;4.376;2023-01-01T04:06:31;101074.06;;;11.87;nan
70053;BME280;57398;52.032;4.376;2023-01-01T04:09:22;101084.56;;;11.80;nan
70053;BME280;57398;52.032;4.376;2023-01-01T04:12:15;101089.66;;;11.75;nan
70053;BME280;57398;52.032;4.376;2023-01-01T04:15:08;101083.50;;;11.69;nan
70053;BME280;57398;52.032;4.376;2023-01-01T04:17:57;101098.97;;;11.64;nan
70053;BME280;57398;52.032;4.376;2023-01-01T04:20:46;101112.19;;;11.63;nan
70053;BME280;57398;52.032;4.376;2023-01-01T04:23:34;101096.66;;;11.56;nan
70053;BME280;57398;52.032;4.376;2023-01-01T04:26:22;101106.41;;;11.61;nan
70053;BME280;57398;52.032;4.376;2023-01-01T04:29:11;101126.81;;;11.64;nan
70053;BME280;57398;52.032;4.376;2023-01-01T04:31:59;101135.47;;;11.58;nan
70053;BME280;57398;52.032;4.376;2023-01-01T04:34:47;101136.72;;;11.55;nan
70053;BME280;57398;52.032;4.376;2023-01-01T04:37:35;101147.31;;;11.53;nan
70053;BME280;57398;52.032;4.376;2023-01-01T04:40:23;101153.09;;;11.56;nan
70053;BME280;57398;52.032;4.376;2023-01-01T04:43:11;101149.56;;;11.50;nan
70053;BME280;57398;52.032;4.376;2023-01-01T04:46:02;101172.03;;;11.44;nan
70053;BME280;57398;52.032;4.376;2023-01-01T04:48:50;101165.47;;;11.42;nan
70053;BME280;57398;52.032;4.376;2023-01-01T04:51:38;101163.06;;;11.40;nan
70053;BME280;57398;52.032;4.376;2023-01-01T04:54:26;101162.34;;;11.33;nan
70053;BME280;57398;52.032;4.376;2023-01-01T04:57:15;101160.09;;;11.37;nan
70053;BME280;57398;52.032;4.376;2023-01-01T05:00:04;101161.34;;;11.34;nan
70053;BME280;57398;52.032;4.376;2023-01-01T05:02:54;101147.75;;;11.32;nan
70053;BME280;57398;52.032;4.376;2023-01-01T05:05:42;101170.00;;;11.28;nan
70053;BME280;57398;52.032;4.376;2023-01-01T05:08:38;101168.19;;;11.28;nan
70053;BME280;57398;52.032;4.376;2023-01-01T05:11:28;101171.22;;;11.25;nan
70053;BME280;57398;52.032;4.376;2023-01-01T05:14:16;101188.84;;;11.23;nan
70053;BME280;57398;52.032;4.376;2023-01-01T05:17:04;101175.63;;;11.25;nan
70053;BME280;57398;52.032;4.376;2023-01-01T05:19:54;101179.22;;;11.24;nan
70053;BME280;57398;52.032;4.376;2023-01-01T05:22:44;101181.19;;;11.28;nan
70053;BME280;57398;52.032;4.376;2023-01-01T05:25:32;101163.25;;;11.20;nan
70053;BME280;57398;52.032;4.376;2023-01-01T05:28:20;101178.63;;;11.22;nan
70053;BME280;57398;52.032;4.376;2023-01-01T05:31:12;101184.63;;;11.22;nan
70053;BME280;57398;52.032;4.376;2023-01-01T05:34:02;101178.16;;;11.31;nan
70053;BME280;57398;52.032;4.376;2023-01-01T05:36:50;101188.84;;;11.23;nan
70053;BME280;57398;52.032;4.376;2023-01-01T05:39:38;101218.88;;;11.19;nan
70053;BME280;57398;52.032;4.376;2023-01-01T05:42:26;101204.22;;;11.25;nan
70053;BME280;57398;52.032;4.376;2023-01-01T05:45:15;101217.06;;;11.20;nan
70053;BME280;57398;52.032;4.376;2023-01-01T05:48:03;101226.22;;;11.22;nan
70053;BME280;57398;52.032;4.376;2023-01-01T05:50:53;101223.28;;;11.19;nan
70053;BME280;57398;52.032;4.376;2023-01-01T05:53:42;101222.50;;;11.18;nan
70053;BME280;57398;52.032;4.376;2023-01-01T05:56:31;101229.06;;;11.21;nan
70053;BME280;57398;52.032;4.376;2023-01-01T05:59:19;101224.06;;;11.19;nan
70053;BME280;57398;52.032;4.376;2023-01-01T06:02:07;101240.47;;;11.20;nan
70053;BME280;57398;52.032;4.376;2023-01-01T06:04:55;101248.06;;;11.21;nan
70053;BME280;57398;52.032;4.376;2023-01-01T06:07:43;101242.84;;;11.21;nan
70053;BME280;57398;52.032;4.376;2023-01-01T06:10:35;101254.47;;;11.19;nan
70053;BME280;57398;52.032;4.376;2023-01-01T06:13:23;101256.94;;;11.14;nan
70053;BME280;57398;52.032;4.376;2023-01-01T06:16:12;101262.91;;;11.14;nan
70053;BME280;57398;52.032;4.376;2023-01-01T06:19:00;101271.31;;;11.16;nan
70053;BME280;57398;52.032;4.376;2023-01-01T06:21:48;101265.50;;;11.14;nan
70053;BME280;57398;52.032;4.376;2023-01-01T06:24:36;101264.94;;;11.12;nan
70053;BME280;57398;52.032;4.376;2023-01-01T06:27:26;101274.09;;;11.15;nan
70053;BME280;57398;52.032;4.376;2023-01-01T06:30:15;101272.56;;;11.07;nan
70053;BME280;57398;52.032;4.376;2023-01-01T06:33:03;101276.97;;;11.06;nan
70053;BME280;57398;52.032;4.376;2023-01-01T06:35:52;101280.56;;;11.05;nan
70053;BME280;57398;52.032;4.376;2023-01-01T06:38:42;101272.44;;;10.95;nan
70053;BME280;57398;52.032;4.376;2023-01-01T06:41:32;101296.63;;;10.96;nan
70053;BME280;57398;52.032;4.376;2023-01-01T06:44:21;101304.47;;;10.89;nan
70053;BME280;57398;52.032;4.376;2023-01-01T06:47:09;101308.25;;;10.93;nan
70053;BME280;57398;52.032;4.376;2023-01-01T06:49:57;101316.25;;;10.92;nan
70053;BME280;57398;52.032;4.376;2023-01-01T06:52:45;101310.25;;;10.91;nan
70053;BME280;57398;52.032;4.376;2023-01-01T06:55:34;101316.84;;;10.94;nan
70053;BME280;57398;52.032;4.376;2023-01-01T06:58:23;101325.41;;;10.94;nan
70053;BME280;57398;52.032;4.376;2023-01-01T07:01:14;101333.66;;;10.91;nan
70053;BME280;57398;52.032;4.376;2023-01-01T07:04:05;101345.03;;;10.90;nan
70053;BME280;57398;52.032;4.376;2023-01-01T07:06:54;101342.25;;;10.85;nan
70053;BME280;57398;52.032;4.376;2023-01-01T07:09:42;101341.84;;;10.88;nan
70053;BME280;57398;52.032;4.376;2023-01-01T07:12:30;101342.13;;;10.73;nan
70053;BME280;57398;52.032;4.376;2023-01-01T07:15:18;101373.09;;;10.75;nan
70053;BME280;57398;52.032;4.376;2023-01-01T07:18:08;101356.75;;;10.67;nan
70053;BME280;57398;52.032;4.376;2023-01-01T07:20:58;101356.16;;;10.65;nan
70053;BME280;57398;52.032;4.376;2023-01-01T07:23:46;101360.34;;;10.60;nan
70053;BME280;57398;52.032;4.376;2023-01-01T07:26:34;101362.75;;;10.61;nan
70053;BME280;57398;52.032;4.376;2023-01-01T07:29:22;101374.75;;;10.56;nan
70053;BME280;57398;52.032;4.376;2023-01-01T07:32:11;101384.56;;;10.54;nan
70053;BME280;57398;52.032;4.376;2023-01-01T07:35:01;101395.78;;;10.47;nan
70053;BME280;57398;52.032;4.376;2023-01-01T07:37:49;101402.94;;;10.52;nan
70053;BME280;57398;52.032;4.376;2023-01-01T07:40:37;101408.34;;;10.51;nan
70053;BME280;57398;52.032;4.376;2023-01-01T07:43:25;101407.75;;;10.48;nan
70053;BME280;57398;52.032;4.376;2023-01-01T07:46:14;101417.53;;;10.46;nan
70053;BME280;57398;52.032;4.376;2023-01-01T07:49:04;101437.53;;;10.46;nan
70053;BME280;57398;52.032;4.376;2023-01-01T07:51:54;101445.91;;;10.48;nan
70053;BME280;57398;52.032;4.376;2023-01-01T07:54:42;101439.31;;;10.45;nan
70053;BME280;57398;52.032;4.376;2023-01-01T07:57:30;101444.94;;;10.42;nan
70053;BME280;57398;52.032;4.376;2023-01-01T08:00:19;101446.72;;;10.42;nan
70053;BME280;57398;52.032;4.376;2023-01-01T08:03:08;101453.50;;;10.43;nan
70053;BME280;57398;52.032;4.376;2023-01-01T08:05:56;101461.69;;;10.40;nan
70053;BME280;57398;52.032;4.376;2023-01-01T08:08:46;101459.31;;;10.38;nan
70053;BME280;57398;52.032;4.376;2023-01-01T08:11:34;101441.94;;;10.39;nan
70053;BME280;57398;52.032;4.376;2023-01-01T08:14:22;101439.50;;;10.51;nan
70053;BME280;57398;52.032;4.376;2023-01-01T08:17:10;101440.50;;;10.56;nan
70053;BME280;57398;52.032;4.376;2023-01-01T08:19:58;101427.91;;;10.60;nan
70053;BME280;57398;52.032;4.376;2023-01-01T08:22:46;101439.50;;;10.57;nan
70053;BME280;57398;52.032;4.376;2023-01-01T08:25:35;101453.69;;;10.55;nan
70053;BME280;57398;52.032;4.376;2023-01-01T08:28:23;101446.69;;;10.55;nan
70053;BME280;57398;52.032;4.376;2023-01-01T08:31:11;101456.28;;;10.55;nan
70053;BME280;57398;52.032;4.376;2023-01-01T08:33:59;101457.31;;;10.47;nan
70053;BME280;57398;52.032;4.376;2023-01-01T08:36:47;101476.66;;;10.44;nan
70053;BME280;57398;52.032;4.376;2023-01-01T08:39:35;101485.47;;;10.37;nan
70053;BME280;57398;52.032;4.376;2023-01-01T08:42:25;101491.09;;;10.34;nan
70053;BME280;57398;52.032;4.376;2023-01-01T08:45:13;101496.88;;;10.36;nan
70053;BME280;57398;52.032;4.376;2023-01-01T08:48:01;101504.06;;;10.40;nan
70053;BME280;57398;52.032;4.376;2023-01-01T08:50:51;101494.88;;;10.38;nan
70053;BME280;57398;52.032;4.376;2023-01-01T08:53:40;101501.25;;;10.42;nan
70053;BME280;57398;52.032;4.376;2023-01-01T08:56:34;101499.06;;;10.52;nan
70053;BME280;57398;52.032;4.376;2023-01-01T08:59:24;101512.84;;;10.53;nan
70053;BME280;57398;52.032;4.376;2023-01-01T09:02:12;101509.03;;;10.62;nan
70053;BME280;57398;52.032;4.376;2023-01-01T09:05:01;101510.22;;;10.66;nan
70053;BME280;57398;52.032;4.376;2023-01-01T09:07:49;101513.03;;;10.64;nan
70053;BME280;57398;52.032;4.376;2023-01-01T09:10:37;101498.22;;;10.65;nan
70053;BME280;57398;52.032;4.376;2023-01-01T09:13:25;101507.22;;;10.62;nan
70053;BME280;57398;52.032;4.376;2023-01-01T09:16:15;101506.63;;;10.67;nan
70053;BME280;57398;52.032;4.376;2023-01-01T09:19:03;101503.03;;;10.75;nan
70053;BME280;57398;52.032;4.376;2023-01-01T09:21:51;101510.84;;;10.75;nan
70053;BME280;57398;52.032;4.376;2023-01-01T09:24:39;101512.81;;;10.79;nan
70053;BME280;57398;52.032;4.376;2023-01-01T09:27:27;101506.00;;;10.78;nan
70053;BME280;57398;52.032;4.376;2023-01-01T09:30:16;101501.81;;;10.77;nan
70053;BME280;57398;52.032;4.376;2023-01-01T09:33:05;101505.41;;;10.83;nan
70053;BME280;57398;52.032;4.376;2023-01-01T09:35:53;101520.19;;;10.89;nan
70053;BME280;57398;52.032;4.376;2023-01-01T09:38:41;101525.19;;;10.90;nan
70053;BME280;57398;52.032;4.376;2023-01-01T09:41:42;101539.19;;;10.89;nan
70053;BME280;57398;52.032;4.376;2023-01-01T09:44:48;101527.81;;;10.84;nan
70053;BME280;57398;52.032;4.376;2023-01-01T09:47:41;101524.00;;;10.93;nan
70053;BME280;57398;52.032;4.376;2023-01-01T09:50:34;101538.56;;;10.94;nan
70053;BME280;57398;52.032;4.376;2023-01-01T09:53:30;101558.97;;;10.97;nan
70053;BME280;57398;52.032;4.376;2023-01-01T09:56:22;101553.16;;;11.02;nan
70053;BME280;57398;52.032;4.376;2023-01-01T09:59:12;101558.94;;;11.04;nan
70053;BME280;57398;52.032;4.376;2023-01-01T10:02:12;101558.56;;;11.00;nan
70053;BME280;57398;52.032;4.376;2023-01-01T10:05:25;101559.94;;;11.03;nan
70053;BME280;57398;52.032;4.376;2023-01-01T10:08:25;101558.13;;;11.10;nan
70053;BME280;57398;52.032;4.376;2023-01-01T10:11:19;101557.94;;;11.11;nan
70053;BME280;57398;52.032;4.376;2023-01-01T10:14:16;101553.94;;;11.16;nan
70053;BME280;57398;52.032;4.376;2023-01-01T10:17:11;101548.50;;;11.24;nan
70053;BME280;57398;52.032;4.376;2023-01-01T10:20:05;101542.50;;;11.30;nan
70053;BME280;57398;52.032;4.376;2023-01-01T10:23:00;101539.47;;;11.33;nan
70053;BME280;57398;52.032;4.376;2023-01-01T10:25:52;101542.63;;;11.42;nan
70053;BME280;57398;52.032;4.376;2023-01-01T10:28:46;101529.19;;;11.51;nan
70053;BME280;57398;52.032;4.376;2023-01-01T10:31:39;101539.53;;;11.65;nan
70053;BME280;57398;52.032;4.376;2023-01-01T10:34:28;101548.28;;;11.77;nan
70053;BME280;57398;52.032;4.376;2023-01-01T10:37:18;101567.06;;;11.92;nan
70053;BME280;57398;52.032;4.376;2023-01-01T10:40:15;101569.06;;;11.84;nan
70053;BME280;57398;52.032;4.376;2023-01-01T10:43:10;101581.50;;;11.82;nan
70053;BME280;57398;52.032;4.376;2023-01-01T10:45:59;101595.31;;;11.82;nan
70053;BME280;57398;52.032;4.376;2023-01-01T10:49:03;101603.13;;;11.89;nan
70053;BME280;57398;52.032;4.376;2023-01-01T10:51:52;101607.31;;;11.83;nan
70053;BME280;57398;52.032;4.376;2023-01-01T10:54:41;101614.75;;;11.80;nan
70053;BME280;57398;52.032;4.376;2023-01-01T10:57:33;101593.13;;;11.79;nan
70053;BME280;57398;52.032;4.376;2023-01-01T11:00:24;101589.53;;;11.80;nan
70053;BME280;57398;52.032;4.376;2023-01-01T11:03:17;101612.09;;;11.86;nan
70053;BME280;57398;52.032;4.376;2023-01-01T11:06:17;101615.56;;;11.80;nan
70053;BME280;57398;52.032;4.376;2023-01-01T11:09:21;101623.75;;;11.77;nan
70053;BME280;57398;52.032;4.376;2023-01-01T11:12:17;101624.19;;;11.67;nan
70053;BME280;57398;52.032;4.376;2023-01-01T11:15:35;101632.81;;;11.61;nan
70053;BME280;57398;52.032;4.376;2023-01-01T11:18:26;101633.84;;;11.53;nan
70053;BME280;57398;52.032;4.376;2023-01-01T11:21:22;101632.06;;;11.47;nan
70053;BME280;57398;52.032;4.376;2023-01-01T11:24:19;101631.66;;;11.50;nan
70053;BME280;57398;52.032;4.376;2023-01-01T11:27:15;101626.47;;;11.50;nan
70053;BME280;57398;52.032;4.376;2023-01-01T11:30:19;101619.25;;;11.52;nan
70053;BME280;57398;52.032;4.376;2023-01-01T11:33:15;101620.66;;;11.55;nan
70053;BME280;57398;52.032;4.376;2023-01-01T11:36:05;101632.81;;;11.61;nan
70053;BME280;57398;52.032;4.376;2023-01-01T11:39:05;101637.81;;;11.63;nan
70053;BME280;57398;52.032;4.376;2023-01-01T11:41:55;101631.03;;;11.62;nan
70053;BME280;57398;52.032;4.376;2023-01-01T11:44:45;101631.63;;;11.64;nan
70053;BME280;57398;52.032;4.376;2023-01-01T11:47:37;101639.22;;;11.59;nan
70053;BME280;57398;52.032;4.376;2023-01-01T11:50:30;101638.88;;;11.55;nan
70053;BME280;57398;52.032;4.376;2023-01-01T11:53:27;101655.06;;;11.64;nan
70053;BME280;57398;52.032;4.376;2023-01-01T11:56:17;101661.25;;;11.63;nan
70053;BME280;57398;52.032;4.376;2023-01-01T11:59:12;101664.66;;;11.57;nan
70053;BME280;57398;52.032;4.376;2023-01-01T12:02:03;101657.69;;;11.50;nan
70053;BME280;57398;52.032;4.376;2023-01-01T12:04:57;101656.31;;;11.41;nan
70053;BME280;57398;52.032;4.376;2023-01-01T12:07:50;101649.28;;;11.42;nan
70053;BME280;57398;52.032;4.376;2023-01-01T12:10:45;101636.72;;;11.39;nan
70053;BME280;57398;52.032;4.376;2023-01-01T12:13:43;101635.69;;;11.46;nan
70053;BME280;57398;52.032;4.376;2023-01-01T12:16:40;101637.25;;;11.47;nan
70053;BME280;57398;52.032;4.376;2023-01-01T12:19:35;101625.69;;;11.43;nan
70053;BME280;57398;52.032;4.376;2023-01-01T12:22:28;101635.88;;;11.45;nan
70053;BME280;57398;52.032;4.376;2023-01-01T12:25:18;101618.84;;;11.49;nan
70053;BME280;57398;52.032;4.376;2023-01-01T12:28:23;101617.25;;;11.55;nan
70053;BME280;57398;52.032;4.376;2023-01-01T12:31:19;101611.44;;;11.52;nan
70053;BME280;57398;52.032;4.376;2023-01-01T12:34:13;101616.06;;;11.50;nan
70053;BME280;57398;52.032;4.376;2023-01-01T12:37:10;101601.66;;;11.48;nan
70053;BME280;57398;52.032;4.376;2023-01-01T12:40:28;101612.06;;;11.55;nan
70053;BME280;57398;52.032;4.376;2023-01-01T12:43:21;101616.84;;;11.58;nan
70053;BME280;57398;52.032;4.376;2023-01-01T12:46:26;101609.81;;;11.58;nan
70053;BME280;57398;52.032;4.376;2023-01-01T12:49:28;101612.22;;;11.60;nan
70053;BME280;57398;52.032;4.376;2023-01-01T12:52:28;101613.81;;;11.61;nan
70053;BME280;57398;52.032;4.376;2023-01-01T12:55:35;101611.22;;;11.61;nan
70053;BME280;57398;52.032;4.376;2023-01-01T12:58:29;101606.63;;;11.56;nan
70053;BME280;57398;52.032;4.376;2023-01-01T13:01:21;101607.25;;;11.51;nan
70053;BME280;57398;52.032;4.376;2023-01-01T13:04:18;101600.66;;;11.49;nan
70053;BME280;57398;52.032;4.376;2023-01-01T13:07:10;101611.66;;;11.51;nan
70053;BME280;57398;52.032;4.376;2023-01-01T13:10:05;101614.06;;;11.52;nan
70053;BME280;57398;52.032;4.376;2023-01-01T13:12:56;101620.47;;;11.50;nan
70053;BME280;57398;52.032;4.376;2023-01-01T13:15:50;101616.06;;;11.50;nan
70053;BME280;57398;52.032;4.376;2023-01-01T13:18:39;101615.25;;;11.50;nan
70053;BME280;57398;52.032;4.376;2023-01-01T13:21:28;101598.84;;;11.49;nan
70053;BME280;57398;52.032;4.376;2023-01-01T13:24:20;101599.66;;;11.50;nan
70053;BME280;57398;52.032;4.376;2023-01-01T13:27:09;101591.22;;;11.55;nan
70053;BME280;57398;52.032;4.376;2023-01-01T13:29:59;101589.63;;;11.53;nan
70053;BME280;57398;52.032;4.376;2023-01-01T13:33:15;101586.41;;;11.51;nan
70053;BME280;57398;52.032;4.376;2023-01-01T13:36:29;101583.22;;;11.49;nan
70053;BME280;57398;52.032;4.376;2023-01-01T13:39:50;101593.63;;;11.49;nan
70053;BME280;57398;52.032;4.376;2023-01-01T13:42:42;101603.66;;;11.52;nan
70053;BME280;57398;52.032;4.376;2023-01-01T13:45:33;101603.84;;;11.51;nan
70053;BME280;57398;52.032;4.376;2023-01-01T13:52:40;101611.66;;;11.44;nan
70053;BME280;57398;52.032;4.376;2023-01-01T13:55:50;101601.47;;;11.43;nan
70053;BME280;57398;52.032;4.376;2023-01-01T14:02:21;101612.69;;;11.43;nan
70053;BME280;57398;52.032;4.376;2023-01-01T14:05:14;101610.28;;;11.35;nan
70053;BME280;57398;52.032;4.376;2023-01-01T14:08:03;101609.69;;;11.40;nan
70053;BME280;57398;52.032;4.376;2023-01-01T14:10:58;101603.69;;;11.39;nan
70053;BME280;57398;52.032;4.376;2023-01-01T14:13:48;101591.88;;;11.37;nan
70053;BME280;57398;52.032;4.376;2023-01-01T14:16:36;101593.09;;;11.34;nan
70053;BME280;57398;52.032;4.376;2023-01-01T14:19:26;101588.09;;;11.32;nan
70053;BME280;57398;52.032;4.376;2023-01-01T14:22:15;101586.09;;;11.35;nan
70053;BME280;57398;52.032;4.376;2023-01-01T14:25:05;101587.69;;;11.29;nan
70053;BME280;57398;52.032;4.376;2023-01-01T14:27:56;101574.13;;;11.20;nan
70053;BME280;57398;52.032;4.376;2023-01-01T14:30:45;101590.91;;;11.18;nan
70053;BME280;57398;52.032;4.376;2023-01-01T14:33:34;101596.72;;;11.20;nan
70053;BME280;57398;52.032;4.376;2023-01-01T14:36:25;101604.13;;;11.23;nan
70053;BME280;57398;52.032;4.376;2023-01-01T14:39:24;101595.31;;;11.17;nan
70053;BME280;57398;52.032;4.376;2023-01-01T14:42:15;101595.31;;;11.17;nan
70053;BME280;57398;52.032;4.376;2023-01-01T14:45:05;101596.53;;;11.15;nan
70053;BME280;57398;52.032;4.376;2023-01-01T14:48:00;101582.75;;;11.14;nan
70053;BME280;57398;52.032;4.376;2023-01-01T14:50:49;101573.56;;;11.05;nan
70053;BME280;57398;52.032;4.376;2023-01-01T14:53:40;101587.75;;;11.16;nan
70053;BME280;57398;52.032;4.376;2023-01-01T14:56:31;101590.13;;;11.17;nan
70053;BME280;57398;52.032;4.376;2023-01-01T14:59:23;101579.94;;;11.16;nan
70053;BME280;57398;52.032;4.376;2023-01-01T15:02:15;101589.53;;;11.15;nan
70053;BME280;57398;52.032;4.376;2023-01-01T15:05:23;101584.13;;;11.17;nan
70053;BME280;57398;52.032;4.376;2023-01-01T15:08:22;101580.13;;;11.14;nan
70053;BME280;57398;52.032;4.376;2023-01-01T15:11:13;101590.13;;;11.10;nan
70053;BME280;57398;52.032;4.376;2023-01-01T15:14:02;101586.31;;;11.13;nan
70053;BME280;57398;52.032;4.376;2023-01-01T15:16:59;101599.31;;;11.13;nan
70053;BME280;57398;52.032;4.376;2023-01-01T15:20:03;101598.94;;;11.09;nan
70053;BME280;57398;52.032;4.376;2023-01-01T15:22:53;101597.75;;;11.12;nan
70053;BME280;57398;52.032;4.376;2023-01-01T15:25:41;101595.34;;;11.10;nan
70053;BME280;57398;52.032;4.376;2023-01-01T15:28:31;101609.16;;;11.11;nan
70053;BME280;57398;52.032;4.376;2023-01-01T15:31:19;101605.34;;;11.14;nan